Time;durP1;ratioP1;P1;durP2;ratioP2;P2;SDS_P1;SDS_P2;PMS_P1;PMS_P2;Temp;Humidity;BMP_temperature;BMP_pressure;BME280_temperature;BME280_humidity;BME280_pressure;Samples;Min_cycle;Max_cycle;Signal;HPM_P1;HPM_P2
2023/04/22 00:00:07;;;;;;;8.38;7.53;;;8.40;46.30;;;;;;5015624;28;20477;-80
2023/04/22 00:02:36;;;;;;;8.07;7.28;;;8.30;46.10;;;;;;5017312;28;20849;-80
2023/04/22 00:05:02;;;;;;;8.88;8.05;;;8.30;46.20;;;;;;5017402;28;20497;-81
2023/04/22 00:07:28;;;;;;;7.95;7.15;;;8.30;46.30;;;;;;5019371;28;20055;-82
2023/04/22 00:09:54;;;;;;;9.18;8.27;;;8.30;46.40;;;;;;5003472;28;20036;-82
2023/04/22 00:12:21;;;;;;;9.13;8.25;;;8.20;46.30;;;;;;5012730;28;20099;-81
2023/04/22 00:14:47;;;;;;;8.63;7.72;;;8.20;46.40;;;;;;4998036;28;20471;-80
2023/04/22 00:17:13;;;;;;;9.05;8.15;;;8.20;46.40;;;;;;5020075;28;20592;-81
2023/04/22 00:19:39;;;;;;;8.70;7.70;;;8.20;46.50;;;;;;4999386;28;20095;-82
2023/04/22 00:22:05;;;;;;;10.20;9.23;;;8.10;46.30;;;;;;4995549;28;20386;-82
2023/04/22 00:24:31;;;;;;;9.45;8.45;;;8.10;46.40;;;;;;5021836;28;20115;-81
2023/04/22 00:26:57;;;;;;;10.05;8.95;;;8.10;46.50;;;;;;5002808;28;20033;-82
2023/04/22 00:29:26;;;;;;;11.15;10.05;;;8.10;46.50;;;;;;5020762;28;20037;-82
2023/04/22 00:31:52;;;;;;;10.27;9.20;;;8.00;46.40;;;;;;4996501;28;20056;-81
2023/04/22 00:34:18;;;;;;;10.95;9.75;;;8.00;46.40;;;;;;5021052;28;20052;-81
2023/04/22 00:36:45;;;;;;;12.00;10.43;;;7.90;46.70;;;;;;5000719;28;20078;-80
2023/04/22 00:39:11;;;;;;;11.45;9.70;;;7.90;46.40;;;;;;5015136;28;20123;-80
2023/04/22 00:41:40;;;;;;;11.05;9.80;;;7.90;46.50;;;;;;4976559;28;20041;-82
2023/04/22 00:44:10;;;;;;;11.60;10.40;;;7.80;46.40;;;;;;5014941;28;20034;-81
2023/04/22 00:46:38;;;;;;;12.32;11.10;;;7.90;46.70;;;;;;5019427;28;20497;-81
2023/04/22 00:49:04;;;;;;;12.20;10.93;;;7.80;46.60;;;;;;5000633;28;20433;-81
2023/04/22 00:51:31;;;;;;;13.20;11.70;;;7.70;46.40;;;;;;5014615;28;20030;-80
2023/04/22 00:53:57;;;;;;;12.93;11.20;;;7.80;46.60;;;;;;5013952;28;20176;-81
2023/04/22 00:56:27;;;;;;;14.13;11.73;;;7.70;46.50;;;;;;5015262;28;20033;-80
2023/04/22 00:58:54;;;;;;;13.48;12.02;;;7.70;46.60;;;;;;5013708;28;20444;-82
2023/04/22 01:01:21;;;;;;;14.00;12.57;;;7.70;46.70;;;;;;5018889;28;20456;-80
2023/04/22 01:03:49;;;;;;;15.20;12.05;;;7.70;47.40;;;;;;5019590;28;20433;-81
2023/04/22 01:06:22;;;;;;;13.98;12.43;;;7.60;46.60;;;;;;5003578;28;20072;-80
2023/04/22 01:08:48;;;;;;;13.80;12.38;;;7.60;46.70;;;;;;5013866;28;20029;-80
2023/04/22 01:11:14;;;;;;;12.25;10.98;;;7.60;46.70;;;;;;5015358;28;20065;-80
2023/04/22 01:13:40;;;;;;;12.82;11.35;;;7.60;46.80;;;;;;5015860;28;20038;-80
2023/04/22 01:16:07;;;;;;;14.00;12.27;;;7.60;46.90;;;;;;5007241;28;20124;-80
2023/04/22 01:18:35;;;;;;;13.25;11.63;;;7.60;46.90;;;;;;5012793;28;20056;-80
2023/04/22 01:21:02;;;;;;;12.85;11.20;;;7.50;46.80;;;;;;5023561;28;20040;-79
2023/04/22 01:23:28;;;;;;;13.07;11.77;;;7.50;46.80;;;;;;5022804;28;20515;-80
2023/04/22 01:25:54;;;;;;;13.23;11.75;;;7.50;46.90;;;;;;5014491;28;20033;-80
2023/04/22 01:28:22;;;;;;;12.73;11.43;;;7.50;47.00;;;;;;5015847;28;20038;-80
2023/04/22 01:30:48;;;;;;;14.38;12.48;;;7.40;46.80;;;;;;5021802;28;20033;-80
2023/04/22 01:33:15;;;;;;;13.35;11.70;;;7.40;46.90;;;;;;5018928;28;20663;-80
2023/04/22 01:35:41;;;;;;;13.30;11.90;;;7.30;46.80;;;;;;5018042;28;20040;-81
2023/04/22 01:38:09;;;;;;;13.18;11.68;;;7.30;46.90;;;;;;5020991;28;20034;-80
2023/04/22 01:40:37;;;;;;;13.98;11.77;;;7.30;47.00;;;;;;5013674;28;20340;-81
2023/04/22 01:43:03;;;;;;;14.85;11.35;;;7.30;47.00;;;;;;5018028;28;20037;-81
2023/04/22 01:45:29;;;;;;;12.38;10.88;;;7.30;47.00;;;;;;5016030;28;20470;-80
2023/04/22 01:47:55;;;;;;;12.65;11.35;;;7.20;46.90;;;;;;5025557;28;20041;-79
2023/04/22 01:50:22;;;;;;;12.15;10.90;;;7.20;47.00;;;;;;5004660;28;20040;-79
2023/04/22 01:52:48;;;;;;;11.68;10.45;;;7.20;47.10;;;;;;4993791;28;20033;-79
2023/04/22 01:55:14;;;;;;;12.35;10.93;;;7.10;46.90;;;;;;5009464;28;20060;-80
2023/04/22 01:57:42;;;;;;;10.85;9.73;;;7.10;47.00;;;;;;5010188;28;20033;-79
2023/04/22 02:00:09;;;;;;;11.25;10.15;;;7.10;47.10;;;;;;5005190;28;20045;-79
2023/04/22 02:02:46;;;;;;;11.30;10.13;;;7.10;47.10;;;;;;5008287;28;20086;-81
2023/04/22 02:05:12;;;;;;;10.98;9.38;;;7.00;46.90;;;;;;5009207;28;20029;-80
2023/04/22 02:07:38;;;;;;;10.95;9.77;;;7.00;47.00;;;;;;5026905;28;20110;-80
2023/04/22 02:10:05;;;;;;;11.18;10.00;;;6.90;46.80;;;;;;5009668;28;20067;-80
2023/04/22 02:12:31;;;;;;;11.80;9.98;;;6.90;46.80;;;;;;5016024;28;20033;-81
2023/04/22 02:14:57;;;;;;;11.00;9.85;;;6.90;46.90;;;;;;5009421;28;20043;-80
2023/04/22 02:17:24;;;;;;;11.10;9.98;;;6.90;46.90;;;;;;5023649;28;20120;-81
2023/04/22 02:19:50;;;;;;;11.02;9.93;;;6.90;47.00;;;;;;5010303;28;21194;-80
2023/04/22 02:22:16;;;;;;;10.90;9.38;;;6.80;46.80;;;;;;5022458;28;20432;-81
2023/04/22 02:24:42;;;;;;;11.68;9.95;;;6.80;46.90;;;;;;5010128;28;20204;-80
2023/04/22 02:27:08;;;;;;;12.20;10.30;;;6.80;46.90;;;;;;5001456;28;20038;-80
2023/04/22 02:29:34;;;;;;;11.50;10.30;;;6.70;46.80;;;;;;5023205;28;20052;-80
2023/04/22 02:32:00;;;;;;;11.52;10.38;;;6.70;46.90;;;;;;5003749;28;20042;-81
2023/04/22 02:34:27;;;;;;;12.25;10.52;;;6.70;46.90;;;;;;5002342;28;20029;-80
2023/04/22 02:36:53;;;;;;;10.65;9.55;;;6.70;46.90;;;;;;5004421;28;20030;-80
2023/04/22 02:39:19;;;;;;;10.82;9.73;;;6.60;46.80;;;;;;4996367;28;20390;-81
2023/04/22 02:41:45;;;;;;;11.50;10.40;;;6.60;46.80;;;;;;4993725;28;20069;-81
2023/04/22 02:44:11;;;;;;;11.60;10.27;;;6.60;47.00;;;;;;5003872;28;20052;-81
2023/04/22 02:46:37;;;;;;;11.60;10.40;;;6.60;47.00;;;;;;5010469;28;20129;-81
2023/04/22 02:49:03;;;;;;;11.45;10.10;;;6.60;47.00;;;;;;5024527;28;20509;-82
2023/04/22 02:51:30;;;;;;;11.63;10.25;;;6.60;47.00;;;;;;5009407;28;20120;-81
2023/04/22 02:53:56;;;;;;;12.57;10.93;;;6.50;46.90;;;;;;5002678;28;20045;-81
2023/04/22 02:56:22;;;;;;;12.23;10.20;;;6.50;46.90;;;;;;5004287;28;20048;-81
2023/04/22 02:58:48;;;;;;;12.18;10.88;;;6.50;46.90;;;;;;4998812;28;20548;-81
2023/04/22 03:01:14;;;;;;;13.75;11.57;;;6.50;47.00;;;;;;4987749;28;20041;-82
2023/04/22 03:03:40;;;;;;;13.45;11.48;;;6.50;47.00;;;;;;5009390;28;20675;-81
2023/04/22 03:06:09;;;;;;;13.05;11.57;;;6.40;46.80;;;;;;5004291;28;20037;-81
2023/04/22 03:08:35;;;;;;;13.82;11.18;;;6.40;46.80;;;;;;5006694;28;20375;-80
2023/04/22 03:11:00;;;;;;;12.32;11.02;;;6.30;46.70;;;;;;4992683;28;20033;-81
2023/04/22 03:13:26;;;;;;;13.60;11.60;;;6.40;47.00;;;;;;5027054;28;20562;-80
2023/04/22 03:15:52;;;;;;;14.15;11.90;;;6.30;46.80;;;;;;5008605;28;20400;-80
2023/04/22 03:18:18;;;;;;;15.98;11.60;;;6.30;46.90;;;;;;5018592;28;20041;-80
2023/04/22 03:20:44;;;;;;;12.70;11.02;;;6.30;46.90;;;;;;5026674;28;20041;-81
2023/04/22 03:23:10;;;;;;;14.88;12.23;;;6.30;46.90;;;;;;4998954;28;20041;-80
2023/04/22 03:25:37;;;;;;;14.15;11.95;;;6.30;47.00;;;;;;5000483;28;20124;-80
2023/04/22 03:28:03;;;;;;;14.93;12.95;;;6.20;46.80;;;;;;4991072;28;20041;-80
2023/04/22 03:30:30;;;;;;;13.80;11.95;;;6.20;46.90;;;;;;5019619;28;20039;-80
2023/04/22 03:32:56;;;;;;;14.65;13.07;;;6.20;46.90;;;;;;5004656;28;20030;-80
2023/04/22 03:35:48;;;;;;;13.77;12.13;;;6.20;47.00;;;;;;5013841;28;20051;-80
2023/04/22 03:38:15;;;;;;;14.80;12.38;;;6.20;47.00;;;;;;5003264;28;20463;-79
2023/04/22 03:40:42;;;;;;;16.60;13.38;;;6.20;47.00;;;;;;5010500;28;20470;-79
2023/04/22 03:43:20;;;;;;;14.30;11.93;;;6.20;47.10;;;;;;5006086;28;20033;-80
2023/04/22 03:45:56;;;;;;;15.35;13.15;;;6.10;47.00;;;;;;5003093;28;20041;-80
2023/04/22 03:48:27;;;;;;;15.95;13.48;;;6.10;47.00;;;;;;5018950;28;20057;-79
2023/04/22 03:50:53;;;;;;;14.05;12.55;;;6.10;47.00;;;;;;5023030;28;20376;-80
2023/04/22 03:53:19;;;;;;;14.60;12.85;;;6.10;47.10;;;;;;5026444;28;20026;-79
2023/04/22 03:55:46;;;;;;;15.57;13.60;;;6.10;47.70;;;;;;5025235;28;20426;-79
2023/04/22 03:58:13;;;;;;;13.90;12.43;;;6.10;47.10;;;;;;5034888;28;20026;-79
2023/04/22 04:00:39;;;;;;;15.85;12.45;;;6.00;47.00;;;;;;5048223;28;20201;-79
2023/04/22 04:03:10;;;;;;;15.00;12.68;;;6.00;47.00;;;;;;5035925;28;20077;-78
2023/04/22 04:05:36;;;;;;;14.50;12.60;;;6.00;47.10;;;;;;5051141;28;20013;-79
2023/04/22 04:08:02;;;;;;;15.43;13.73;;;6.00;47.10;;;;;;5051569;28;20072;-80
2023/04/22 04:10:28;;;;;;;15.65;12.68;;;6.00;47.20;;;;;;5055206;28;20026;-81
2023/04/22 04:12:56;;;;;;;16.17;13.82;;;6.00;47.20;;;;;;5054559;28;20029;-80
2023/04/22 04:15:24;;;;;;;18.15;13.18;;;5.90;47.10;;;;;;5049165;28;20092;-80
2023/04/22 04:17:50;;;;;;;15.98;14.27;;;5.90;47.10;;;;;;5037413;28;20049;-81
2023/04/22 04:20:18;;;;;;;16.00;13.68;;;5.90;47.20;;;;;;5020138;28;20088;-80
2023/04/22 04:22:45;;;;;;;15.25;13.43;;;5.90;47.20;;;;;;5017354;28;20401;-81
2023/04/22 04:25:11;;;;;;;15.73;13.60;;;5.90;47.20;;;;;;5025673;28;20053;-81
2023/04/22 04:27:41;;;;;;;15.75;13.90;;;5.90;47.30;;;;;;5025904;28;20080;-80
2023/04/22 04:30:10;;;;;;;15.65;13.13;;;5.90;47.30;;;;;;5025574;28;20033;-80
2023/04/22 04:32:50;;;;;;;15.23;13.43;;;5.90;47.40;;;;;;5010973;28;20071;-79
2023/04/22 04:35:17;;;;;;;16.70;14.23;;;5.90;47.40;;;;;;5025557;28;20041;-78
2023/04/22 04:37:47;;;;;;;16.67;13.98;;;5.80;47.30;;;;;;5009717;28;20044;-78
2023/04/22 04:40:14;;;;;;;14.45;12.60;;;5.80;47.30;;;;;;5019130;28;20112;-80
2023/04/22 04:43:07;;;;;;;16.77;13.43;;;5.80;47.40;;;;;;5017811;28;20525;-79
2023/04/22 04:45:45;;;;;;;17.15;14.05;;;5.70;47.30;;;;;;5024288;28;20038;-79
2023/04/22 04:48:13;;;;;;;17.05;13.48;;;5.70;47.30;;;;;;5014954;28;20108;-80
2023/04/22 04:50:46;;;;;;;17.92;13.98;;;5.70;47.40;;;;;;5017919;28;20116;-80
2023/04/22 04:53:12;;;;;;;14.82;12.85;;;5.70;47.40;;;;;;5001782;28;20104;-81
2023/04/22 04:55:40;;;;;;;15.20;13.60;;;5.70;47.40;;;;;;5009672;28;20091;-81
2023/04/22 04:58:14;;;;;;;19.00;14.05;;;5.70;47.50;;;;;;5021735;28;20094;-79
2023/04/22 05:00:40;;;;;;;16.63;13.95;;;5.70;47.50;;;;;;5015012;28;20057;-80
2023/04/22 05:03:07;;;;;;;15.70;13.40;;;5.70;47.50;;;;;;5010971;28;20103;-79
2023/04/22 05:05:33;;;;;;;15.02;13.07;;;5.60;47.40;;;;;;5004089;28;20034;-79
2023/04/22 05:08:00;;;;;;;16.13;13.90;;;5.60;47.50;;;;;;5017982;28;20053;-79
2023/04/22 05:10:26;;;;;;;15.25;12.77;;;5.60;47.50;;;;;;5013267;28;20037;-78
2023/04/22 05:12:52;;;;;;;14.98;12.85;;;5.60;47.50;;;;;;5012541;28;20025;-80
2023/04/22 05:15:22;;;;;;;15.30;13.20;;;5.60;47.50;;;;;;4998632;28;20041;-82
2023/04/22 05:17:48;;;;;;;16.52;13.80;;;5.60;47.60;;;;;;5015055;28;20033;-79
2023/04/22 05:20:14;;;;;;;14.07;12.52;;;5.60;47.60;;;;;;5014954;28;20068;-77
2023/04/22 05:22:42;;;;;;;15.38;13.77;;;5.50;47.40;;;;;;5010917;28;20064;-76
2023/04/22 05:25:09;;;;;;;15.45;13.27;;;5.60;47.60;;;;;;5018422;28;20051;-78
2023/04/22 05:27:37;;;;;;;17.30;13.50;;;5.50;47.40;;;;;;5008636;28;20033;-80
2023/04/22 05:30:06;;;;;;;15.35;13.75;;;5.50;47.30;;;;;;5010269;28;20034;-81
2023/04/22 05:32:33;;;;;;;20.23;14.40;;;5.50;47.40;;;;;;5009455;28;20036;-83
2023/04/22 05:34:59;;;;;;;15.65;13.95;;;5.50;47.30;;;;;;5015355;28;20465;-82
2023/04/22 05:37:25;;;;;;;19.05;14.85;;;5.60;47.50;;;;;;5010835;28;20104;-81
2023/04/22 05:39:51;;;;;;;15.63;13.90;;;5.60;47.50;;;;;;5006604;28;20105;-82
2023/04/22 05:42:18;;;;;;;17.05;14.10;;;5.60;47.50;;;;;;5011872;28;20631;-80
2023/04/22 05:44:44;;;;;;;16.73;14.40;;;5.60;47.50;;;;;;5008526;28;20108;-79
2023/04/22 05:47:10;;;;;;;16.65;13.80;;;5.60;47.40;;;;;;5006689;28;20030;-81
2023/04/22 05:49:36;;;;;;;15.80;13.45;;;5.60;47.40;;;;;;5009704;28;20064;-81
2023/04/22 05:52:15;;;;;;;16.80;14.15;;;5.70;47.50;;;;;;5007518;28;20038;-81
2023/04/22 05:54:58;;;;;;;16.42;14.68;;;5.70;47.50;;;;;;5004572;28;20030;-82
2023/04/22 05:57:24;;;;;;;17.08;14.43;;;5.80;47.50;;;;;;5009189;28;20033;-81
2023/04/22 05:59:50;;;;;;;17.75;14.65;;;5.80;47.40;;;;;;4990640;28;20610;-82
2023/04/22 06:02:17;;;;;;;17.77;14.23;;;5.90;47.60;;;;;;4992827;28;20042;-82
2023/04/22 06:04:43;;;;;;;16.10;14.13;;;5.90;47.50;;;;;;5007712;28;20060;-85
2023/04/22 06:07:09;;;;;;;17.10;15.00;;;5.90;47.50;;;;;;5017759;28;20045;-80
2023/04/22 06:09:35;;;;;;;17.67;14.65;;;5.90;47.40;;;;;;5009747;28;20045;-81
2023/04/22 06:12:01;;;;;;;19.15;14.75;;;6.00;47.60;;;;;;5006610;28;20119;-78
2023/04/22 06:14:27;;;;;;;16.45;14.50;;;6.00;47.50;;;;;;5013296;28;20196;-77
2023/04/22 06:16:53;;;;;;;13.45;11.98;;;6.10;47.70;;;;;;5018327;28;20029;-78
2023/04/22 06:19:19;;;;;;;14.60;12.55;;;6.10;47.80;;;;;;5018887;28;20060;-77
2023/04/22 06:21:45;;;;;;;15.07;13.48;;;6.20;48.20;;;;;;5013394;28;20049;-77
2023/04/22 06:24:11;;;;;;;19.50;13.80;;;6.30;48.40;;;;;;4992441;28;20046;-78
2023/04/22 06:26:37;;;;;;;15.55;12.02;;;6.50;49.10;;;;;;5010289;28;20044;-78
2023/04/22 06:29:04;;;;;;;16.98;12.70;;;6.70;49.60;;;;;;5015814;28;20044;-77
2023/04/22 06:31:31;;;;;;;16.20;13.25;;;7.00;50.70;;;;;;5008970;28;20504;-76
2023/04/22 06:33:58;;;;;;;17.58;13.05;;;7.40;51.70;;;;;;5011605;28;20026;-78
2023/04/22 06:36:26;;;;;;;14.73;12.43;;;7.90;52.40;;;;;;5010129;28;20091;-77
2023/04/22 06:38:57;;;;;;;15.18;12.95;;;8.30;52.70;;;;;;5010445;28;20037;-82
2023/04/22 06:41:43;;;;;;;14.27;11.40;;;8.80;53.00;;;;;;5009445;28;20342;-79
2023/04/22 06:44:32;;;;;;;17.25;13.18;;;9.40;53.20;;;;;;5011859;28;20034;-77
2023/04/22 06:47:21;;;;;;;14.10;11.35;;;10.10;53.50;;;;;;5007013;28;20107;-78
2023/04/22 06:49:52;;;;;;;14.77;13.00;;;10.70;53.50;;;;;;5010360;28;20644;-79
2023/04/22 06:52:28;;;;;;;15.30;12.75;;;11.10;53.50;;;;;;5008004;28;20037;-79
2023/04/22 06:54:57;;;;;;;17.45;12.43;;;11.50;53.50;;;;;;4997151;28;20446;-80
2023/04/22 06:57:23;;;;;;;14.75;13.10;;;11.90;53.50;;;;;;5010396;28;20118;-79
2023/04/22 06:59:49;;;;;;;14.20;12.77;;;12.20;53.30;;;;;;5012829;28;20124;-79
2023/04/22 07:02:16;;;;;;;15.45;13.70;;;12.50;53.10;;;;;;4990895;28;20041;-79
2023/04/22 07:04:43;;;;;;;16.27;14.48;;;12.90;53.10;;;;;;5015239;28;20037;-80
2023/04/22 07:07:09;;;;;;;17.08;15.15;;;13.20;52.80;;;;;;5011060;28;20111;-79
2023/04/22 07:09:35;;;;;;;17.17;14.98;;;13.50;52.50;;;;;;4999979;28;21204;-79
2023/04/22 07:12:01;;;;;;;15.07;13.48;;;13.80;52.20;;;;;;5002876;28;20041;-80
2023/04/22 07:14:29;;;;;;;15.10;13.50;;;14.20;52.10;;;;;;5007407;28;20112;-80
2023/04/22 07:17:02;;;;;;;15.85;14.15;;;14.50;51.80;;;;;;5011308;28;20025;-80
2023/04/22 07:19:29;;;;;;;15.77;13.93;;;14.80;51.30;;;;;;5010716;28;20574;-81
2023/04/22 07:21:55;;;;;;;16.83;15.13;;;15.10;51.00;;;;;;5011601;28;20095;-80
2023/04/22 07:24:22;;;;;;;17.90;15.95;;;15.30;50.70;;;;;;5012766;28;20049;-80
2023/04/22 07:26:48;;;;;;;16.83;15.13;;;15.40;50.40;;;;;;5011521;28;20821;-80
2023/04/22 07:29:14;;;;;;;17.70;15.82;;;15.40;50.10;;;;;;4996086;28;20029;-80
2023/04/22 07:31:40;;;;;;;17.58;15.77;;;15.40;50.60;;;;;;5010891;28;20029;-80
2023/04/22 07:34:06;;;;;;;18.00;16.15;;;15.40;49.90;;;;;;5010333;28;20026;-79
2023/04/22 07:36:32;;;;;;;18.35;16.45;;;15.40;49.70;;;;;;5007039;28;20045;-78
2023/04/22 07:38:58;;;;;;;17.80;16.00;;;15.40;49.60;;;;;;4990036;28;20052;-79
2023/04/22 07:41:24;;;;;;;18.85;16.85;;;15.40;49.50;;;;;;5002453;28;20408;-83
2023/04/22 07:43:50;;;;;;;17.27;15.57;;;15.30;49.20;;;;;;5007862;28;20026;-79
2023/04/22 07:46:16;;;;;;;17.48;15.70;;;15.30;49.20;;;;;;5008643;28;20456;-80
2023/04/22 07:48:42;;;;;;;17.08;15.07;;;15.30;49.20;;;;;;5009068;28;20760;-81
2023/04/22 07:51:08;;;;;;;19.75;15.98;;;15.30;49.10;;;;;;5014194;28;20214;-80
2023/04/22 07:53:34;;;;;;;16.65;15.05;;;15.30;49.00;;;;;;5010262;28;20611;-82
2023/04/22 07:56:01;;;;;;;17.30;15.55;;;15.30;48.80;;;;;;4997014;28;20629;-80
2023/04/22 07:58:27;;;;;;;16.88;15.18;;;15.30;48.70;;;;;;5008546;28;20437;-78
2023/04/22 08:00:53;;;;;;;17.40;15.70;;;15.30;48.70;;;;;;5009990;28;20071;-79
2023/04/22 08:03:18;;;;;;;16.63;14.95;;;15.20;48.60;;;;;;5009973;28;20037;-79
2023/04/22 08:05:44;;;;;;;15.05;13.35;;;15.20;48.80;;;;;;4991981;28;20109;-80
2023/04/22 08:08:10;;;;;;;10.00;9.00;;;15.10;48.90;;;;;;5008052;28;20144;-79
2023/04/22 08:10:36;;;;;;;15.63;9.73;;;15.10;49.40;;;;;;5008263;28;20117;-82
2023/04/22 08:13:02;;;;;;;11.55;9.85;;;15.20;50.00;;;;;;5010699;28;20115;-80
2023/04/22 08:15:28;;;;;;;10.32;9.32;;;15.40;50.40;;;;;;5003922;28;20889;-83
2023/04/22 08:17:54;;;;;;;12.00;10.80;;;15.50;50.50;;;;;;4978131;28;20041;-83
2023/04/22 08:20:20;;;;;;;14.40;10.57;;;15.60;50.60;;;;;;4993774;28;21000;-84
2023/04/22 08:22:46;;;;;;;12.43;11.13;;;15.60;50.50;;;;;;5012073;28;20140;-83
2023/04/22 08:25:12;;;;;;;12.05;10.75;;;15.60;50.50;;;;;;5010678;28;20440;-84
2023/04/22 08:27:38;;;;;;;12.02;10.82;;;15.50;50.20;;;;;;5012026;28;20080;-86
2023/04/22 08:30:05;;;;;;;12.98;11.68;;;15.50;50.20;;;;;;4993480;28;20141;-84
2023/04/22 08:32:31;;;;;;;12.27;11.10;;;15.60;50.30;;;;;;5006281;28;20030;-83
2023/04/22 08:34:57;;;;;;;12.77;11.45;;;15.60;50.20;;;;;;4995414;28;20036;-84
2023/04/22 08:37:23;;;;;;;12.40;11.18;;;15.60;50.10;;;;;;5012121;28;20037;-80
2023/04/22 08:39:49;;;;;;;13.07;11.70;;;15.70;50.20;;;;;;5012837;28;20643;-80
2023/04/22 08:42:15;;;;;;;13.95;12.52;;;15.80;50.10;;;;;;5008813;28;20041;-80
2023/04/22 08:44:43;;;;;;;13.02;11.32;;;15.90;50.10;;;;;;4995448;28;20030;-79
2023/04/22 08:47:10;;;;;;;11.82;10.63;;;15.90;50.00;;;;;;4994014;28;20587;-82
2023/04/22 08:49:36;;;;;;;12.43;11.23;;;16.00;50.10;;;;;;5009060;28;20069;-83
2023/04/22 08:52:03;;;;;;;15.63;13.27;;;16.10;50.00;;;;;;5014189;28;20068;-81
2023/04/22 08:54:29;;;;;;;15.00;13.50;;;16.10;50.20;;;;;;4987604;28;20030;-78
2023/04/22 08:56:56;;;;;;;15.02;13.52;;;16.20;49.90;;;;;;5007807;28;20025;-80
2023/04/22 08:59:37;;;;;;;14.57;13.07;;;16.30;50.00;;;;;;5046739;28;20687;-62
2023/04/22 09:02:06;;;;;;;15.75;13.63;;;16.40;50.00;;;;;;5015197;28;20477;-59
2023/04/22 09:04:32;;;;;;;14.35;12.95;;;16.60;50.10;;;;;;5011324;28;20034;-63
2023/04/22 09:07:00;;;;;;;14.00;12.68;;;16.70;50.10;;;;;;5015730;28;20283;-62
2023/04/22 09:09:27;;;;;;;15.05;13.55;;;16.70;49.90;;;;;;5016964;28;20041;-60
2023/04/22 09:11:53;;;;;;;14.65;13.25;;;16.80;49.80;;;;;;5011245;28;20490;-62
2023/04/22 09:14:20;;;;;;;15.20;13.70;;;16.90;49.80;;;;;;5013255;28;20034;-63
2023/04/22 09:16:47;;;;;;;14.32;12.98;;;17.10;49.90;;;;;;5009225;28;20296;-61
2023/04/22 09:19:14;;;;;;;12.90;11.65;;;17.10;49.50;;;;;;5013647;28;20056;-61
2023/04/22 09:21:40;;;;;;;13.20;11.95;;;17.30;49.50;;;;;;5011076;28;20507;-61
2023/04/22 09:24:09;;;;;;;13.77;12.48;;;17.40;49.30;;;;;;5010621;28;20053;-62
2023/04/22 09:26:40;;;;;;;13.23;11.93;;;17.50;49.10;;;;;;5014166;28;20332;-62
2023/04/22 09:29:09;;;;;;;14.07;12.52;;;17.60;48.90;;;;;;5017409;28;20035;-62
2023/04/22 09:31:36;;;;;;;12.52;11.30;;;17.80;49.00;;;;;;5014333;28;20616;-61
2023/04/22 09:34:03;;;;;;;12.88;11.77;;;17.90;48.90;;;;;;5008393;28;20033;-61
2023/04/22 09:36:33;;;;;;;13.18;11.95;;;17.90;48.50;;;;;;5017125;28;20033;-62
2023/04/22 09:39:06;;;;;;;13.30;12.02;;;18.00;48.50;;;;;;5017271;28;20025;-58
2023/04/22 09:41:32;;;;;;;;;;;18.00;48.30;;;;;;5014710;28;20609;-62
2023/04/22 09:44:01;;;;;;;13.32;11.98;;;18.10;48.30;;;;;;5013554;28;19913;-62
2023/04/22 09:46:28;;;;;;;13.35;12.13;;;18.10;48.30;;;;;;5013159;28;20033;-62
2023/04/22 09:48:55;;;;;;;14.30;13.00;;;18.10;48.10;;;;;;5007941;28;20030;-58
2023/04/22 09:51:22;;;;;;;14.38;13.00;;;18.20;48.10;;;;;;5012891;28;20037;-59
2023/04/22 09:53:58;;;;;;;13.75;12.38;;;18.20;47.90;;;;;;5012976;28;20029;-59
2023/04/22 09:56:49;;;;;;;13.02;11.82;;;18.10;47.50;;;;;;5013368;28;20042;-58
2023/04/22 09:59:26;;;;;;;14.50;13.20;;;18.20;47.50;;;;;;5016643;28;20304;-59
2023/04/22 10:01:59;;;;;;;12.90;11.80;;;18.20;47.70;;;;;;5010975;28;20025;-61
2023/04/22 10:04:25;;;;;;;16.02;14.52;;;18.20;47.60;;;;;;5014307;28;20056;-60
2023/04/22 10:06:52;;;;;;;13.50;12.18;;;18.20;47.50;;;;;;5013372;28;20464;-59
2023/04/22 10:09:21;;;;;;;15.00;13.60;;;18.30;47.40;;;;;;5013586;28;20590;-59
2023/04/22 10:11:49;;;;;;;13.35;12.05;;;18.40;47.40;;;;;;4998662;28;20033;-63
2023/04/22 10:14:14;;;;;;;13.43;12.23;;;18.50;47.30;;;;;;5000014;28;20080;-62
2023/04/22 10:16:44;;;;;;;14.98;13.48;;;18.60;47.30;;;;;;4995040;28;20038;-61
2023/04/22 10:19:15;;;;;;;14.48;13.15;;;18.70;47.10;;;;;;4998038;28;20085;-62
2023/04/22 10:21:43;;;;;;;14.13;12.73;;;18.80;47.10;;;;;;5001082;28;20037;-60
2023/04/22 10:24:19;;;;;;;14.07;12.77;;;19.00;47.10;;;;;;4998043;28;20037;-60
2023/04/22 10:26:51;;;;;;;14.13;12.73;;;19.10;47.00;;;;;;4996069;28;20393;-60
2023/04/22 10:29:19;;;;;;;14.38;12.88;;;19.20;46.90;;;;;;4998199;28;20025;-58
2023/04/22 10:32:10;;;;;;;13.95;12.55;;;19.30;46.80;;;;;;5001945;28;20030;-59
2023/04/22 10:34:37;;;;;;;13.70;12.40;;;19.50;46.90;;;;;;4996097;28;20496;-59
2023/04/22 10:37:11;;;;;;;14.80;13.32;;;19.70;47.00;;;;;;4999467;28;20325;-62
2023/04/22 10:39:39;;;;;;;13.27;12.13;;;19.80;46.80;;;;;;5000296;28;20534;-63
2023/04/22 10:42:16;;;;;;;13.07;11.88;;;20.00;46.80;;;;;;4991469;28;20261;-63
2023/04/22 10:44:52;;;;;;;14.00;12.73;;;20.10;46.60;;;;;;4999001;28;20049;-62
2023/04/22 10:47:28;;;;;;;12.90;11.73;;;20.20;46.50;;;;;;4996401;28;20104;-63
2023/04/22 10:50:13;;;;;;;12.38;11.32;;;20.40;46.60;;;;;;4998106;28;20780;-61
2023/04/22 10:52:41;;;;;;;12.57;11.38;;;20.50;46.40;;;;;;5002159;28;20065;-62
2023/04/22 10:55:07;;;;;;;12.93;11.60;;;20.60;46.50;;;;;;5004114;28;20327;-62
2023/04/22 10:57:38;;;;;;;12.60;11.25;;;20.80;46.70;;;;;;5002233;28;20400;-63
2023/04/22 11:00:28;;;;;;;12.38;11.18;;;20.80;46.40;;;;;;5003157;28;20034;-64
2023/04/22 11:03:09;;;;;;;12.48;11.38;;;20.90;46.20;;;;;;5025672;28;21015;-61
2023/04/22 11:05:36;;;;;;;11.30;10.02;;;21.10;46.50;;;;;;5000873;28;20022;-64
2023/04/22 11:08:26;;;;;;;10.25;9.38;;;21.20;46.60;;;;;;4999405;28;20095;-63
2023/04/22 11:11:08;;;;;;;10.80;9.70;;;21.40;46.50;;;;;;4993722;28;21381;-63
2023/04/22 11:13:34;;;;;;;8.70;7.18;;;21.50;46.40;;;;;;5001262;28;20134;-63
2023/04/22 11:16:01;;;;;;;7.32;6.63;;;21.60;46.70;;;;;;4998678;28;20029;-62
2023/04/22 11:18:28;;;;;;;9.73;6.15;;;21.80;47.20;;;;;;5000460;28;20288;-63
2023/04/22 11:20:54;;;;;;;7.10;6.50;;;21.90;47.50;;;;;;4999060;28;20064;-60
2023/04/22 11:23:25;;;;;;;7.75;6.70;;;22.10;47.80;;;;;;4995832;28;20034;-63
2023/04/22 11:26:10;;;;;;;7.68;6.53;;;22.40;48.10;;;;;;4994885;28;20058;-62
2023/04/22 11:28:45;;;;;;;11.65;7.97;;;22.60;48.20;;;;;;5001886;28;20034;-64
2023/04/22 11:31:11;;;;;;;15.32;9.48;;;22.90;48.60;;;;;;4988082;28;20461;-62
2023/04/22 11:33:38;;;;;;;24.23;10.35;;;23.10;48.90;;;;;;5000066;28;20578;-64
2023/04/22 11:36:08;;;;;;;101.80;70.28;;;23.40;49.30;;;;;;4998333;28;20038;-63
2023/04/22 11:38:34;;;;;;;100.10;75.10;;;23.70;49.90;;;;;;4994958;28;20034;-62
2023/04/22 11:41:00;;;;;;;86.10;69.93;;;23.90;50.30;;;;;;4997767;28;20080;-62
2023/04/22 11:43:26;;;;;;;73.22;61.25;;;24.20;51.00;;;;;;4995193;28;20551;-63
2023/04/22 11:45:55;;;;;;;70.60;53.58;;;24.50;51.60;;;;;;4998718;28;20384;-62
2023/04/22 11:48:21;;;;;;;59.25;47.88;;;24.70;51.90;;;;;;4999075;28;20029;-64
2023/04/22 11:50:47;;;;;;;56.30;47.38;;;24.80;51.70;;;;;;4998616;28;20038;-61
2023/04/22 11:53:16;;;;;;;49.50;42.47;;;24.80;51.30;;;;;;4998122;28;20049;-62
2023/04/22 11:55:44;;;;;;;51.65;43.83;;;24.90;51.30;;;;;;4998023;28;20042;-63
2023/04/22 11:58:13;;;;;;;44.83;36.58;;;25.00;51.30;;;;;;4999787;28;20045;-63
2023/04/22 12:00:47;;;;;;;43.15;36.50;;;25.00;51.10;;;;;;4999063;28;20053;-63
2023/04/22 12:03:15;;;;;;;40.53;33.58;;;25.00;50.80;;;;;;5000058;28;20029;-64
2023/04/22 12:05:53;;;;;;;33.78;30.02;;;25.00;50.80;;;;;;5000205;28;20041;-62
2023/04/22 12:08:30;;;;;;;39.00;32.58;;;25.00;50.40;;;;;;4998809;28;20398;-63
2023/04/22 12:11:04;;;;;;;34.83;29.25;;;24.90;50.80;;;;;;4996608;28;20121;-63
2023/04/22 12:13:32;;;;;;;35.38;29.42;;;25.00;50.30;;;;;;4999956;28;20561;-61
2023/04/22 12:16:03;;;;;;;30.50;27.02;;;25.00;50.20;;;;;;4997988;28;20043;-61
2023/04/22 12:18:36;;;;;;;27.35;23.50;;;25.20;50.00;;;;;;4995657;28;20042;-62
2023/04/22 12:21:13;;;;;;;26.95;23.80;;;25.30;49.40;;;;;;4999650;28;20087;-62
2023/04/22 12:23:42;;;;;;;25.30;21.83;;;25.50;49.00;;;;;;4999640;28;20107;-61
2023/04/22 12:26:09;;;;;;;25.00;21.98;;;25.60;48.80;;;;;;5000921;28;20029;-60
2023/04/22 12:28:36;;;;;;;22.88;20.58;;;25.70;48.60;;;;;;4998866;28;20068;-63
2023/04/22 12:31:03;;;;;;;21.52;19.05;;;25.70;48.40;;;;;;4999488;28;20099;-61
2023/04/22 12:33:29;;;;;;;20.73;18.48;;;25.70;48.20;;;;;;4996961;28;20225;-61
2023/04/22 12:35:54;;;;;;;23.75;19.77;;;25.70;48.00;;;;;;4996158;28;20060;-61
2023/04/22 12:38:20;;;;;;;17.42;15.60;;;25.60;47.90;;;;;;4996984;28;20152;-62